sensor_id;sensor_type;location;lat;lon;timestamp;P1;durP1;ratioP1;P2;durP2;ratioP2
27489;SDS011;14925;51.026;13.752;2023-07-20T00:02:04;11.20;;;6.22;;
27489;SDS011;14925;51.026;13.752;2023-07-20T00:04:30;10.88;;;5.80;;
27489;SDS011;14925;51.026;13.752;2023-07-20T00:06:57;8.35;;;5.57;;
27489;SDS011;14925;51.026;13.752;2023-07-20T00:09:22;11.38;;;7.03;;
27489;SDS011;14925;51.026;13.752;2023-07-20T00:11:51;12.55;;;6.20;;
27489;SDS011;14925;51.026;13.752;2023-07-20T00:14:17;9.07;;;5.20;;
27489;SDS011;14925;51.026;13.752;2023-07-20T00:16:43;8.65;;;5.53;;
27489;SDS011;14925;51.026;13.752;2023-07-20T00:19:11;6.82;;;5.43;;
27489;SDS011;14925;51.026;13.752;2023-07-20T00:21:39;8.57;;;5.47;;
27489;SDS011;14925;51.026;13.752;2023-07-20T00:24:05;7.70;;;5.03;;
27489;SDS011;14925;51.026;13.752;2023-07-20T00:26:31;9.65;;;4.85;;
27489;SDS011;14925;51.026;13.752;2023-07-20T00:28:56;8.18;;;4.40;;
27489;SDS011;14925;51.026;13.752;2023-07-20T00:31:22;7.05;;;5.10;;
27489;SDS011;14925;51.026;13.752;2023-07-20T00:33:55;10.10;;;5.20;;
27489;SDS011;14925;51.026;13.752;2023-07-20T00:36:20;6.97;;;4.75;;
27489;SDS011;14925;51.026;13.752;2023-07-20T00:38:45;7.50;;;4.47;;
27489;SDS011;14925;51.026;13.752;2023-07-20T00:41:14;6.38;;;4.13;;
27489;SDS011;14925;51.026;13.752;2023-07-20T00:43:39;5.65;;;4.32;;
27489;SDS011;14925;51.026;13.752;2023-07-20T00:46:04;7.38;;;4.15;;
27489;SDS011;14925;51.026;13.752;2023-07-20T00:48:30;10.88;;;5.28;;
27489;SDS011;14925;51.026;13.752;2023-07-20T00:51:01;5.57;;;3.80;;
27489;SDS011;14925;51.026;13.752;2023-07-20T00:53:27;9.43;;;3.83;;
27489;SDS011;14925;51.026;13.752;2023-07-20T00:55:53;4.82;;;3.53;;
27489;SDS011;14925;51.026;13.752;2023-07-20T00:58:18;10.68;;;4.00;;
27489;SDS011;14925;51.026;13.752;2023-07-20T01:00:44;5.95;;;2.80;;
27489;SDS011;14925;51.026;13.752;2023-07-20T01:03:09;8.05;;;3.00;;
27489;SDS011;14925;51.026;13.752;2023-07-20T01:05:45;6.43;;;3.30;;
27489;SDS011;14925;51.026;13.752;2023-07-20T01:08:24;7.15;;;2.85;;
27489;SDS011;14925;51.026;13.752;2023-07-20T01:11:03;5.80;;;2.92;;
27489;SDS011;14925;51.026;13.752;2023-07-20T01:13:33;5.10;;;2.55;;
27489;SDS011;14925;51.026;13.752;2023-07-20T01:16:01;8.25;;;2.90;;
27489;SDS011;14925;51.026;13.752;2023-07-20T01:18:27;4.38;;;2.40;;
27489;SDS011;14925;51.026;13.752;2023-07-20T01:20:59;6.43;;;2.58;;
27489;SDS011;14925;51.026;13.752;2023-07-20T01:23:27;5.25;;;2.40;;
27489;SDS011;14925;51.026;13.752;2023-07-20T01:30:59;7.05;;;2.70;;
27489;SDS011;14925;51.026;13.752;2023-07-20T01:33:55;7.18;;;3.75;;
27489;SDS011;14925;51.026;13.752;2023-07-20T01:36:22;5.25;;;2.83;;
27489;SDS011;14925;51.026;13.752;2023-07-20T01:38:50;9.55;;;3.50;;
27489;SDS011;14925;51.026;13.752;2023-07-20T01:41:19;9.13;;;3.00;;
27489;SDS011;14925;51.026;13.752;2023-07-20T01:43:44;4.78;;;3.20;;
27489;SDS011;14925;51.026;13.752;2023-07-20T01:46:11;8.98;;;3.45;;
27489;SDS011;14925;51.026;13.752;2023-07-20T01:48:36;10.00;;;3.65;;
27489;SDS011;14925;51.026;13.752;2023-07-20T01:51:01;6.43;;;3.70;;
27489;SDS011;14925;51.026;13.752;2023-07-20T01:53:29;7.28;;;3.72;;
27489;SDS011;14925;51.026;13.752;2023-07-20T01:55:58;5.15;;;3.35;;
27489;SDS011;14925;51.026;13.752;2023-07-20T01:58:23;7.20;;;3.65;;
27489;SDS011;14925;51.026;13.752;2023-07-20T02:00:49;7.43;;;3.65;;
27489;SDS011;14925;51.026;13.752;2023-07-20T02:03:15;5.80;;;3.58;;
27489;SDS011;14925;51.026;13.752;2023-07-20T02:05:43;6.65;;;4.05;;
27489;SDS011;14925;51.026;13.752;2023-07-20T02:08:09;7.55;;;3.88;;
27489;SDS011;14925;51.026;13.752;2023-07-20T02:10:34;9.65;;;4.22;;
27489;SDS011;14925;51.026;13.752;2023-07-20T02:13:05;8.13;;;4.40;;
27489;SDS011;14925;51.026;13.752;2023-07-20T02:15:31;10.52;;;4.70;;
27489;SDS011;14925;51.026;13.752;2023-07-20T02:17:56;8.98;;;5.40;;
27489;SDS011;14925;51.026;13.752;2023-07-20T02:20:22;8.02;;;4.03;;
27489;SDS011;14925;51.026;13.752;2023-07-20T02:22:47;14.38;;;4.25;;
27489;SDS011;14925;51.026;13.752;2023-07-20T02:25:18;7.05;;;4.18;;
27489;SDS011;14925;51.026;13.752;2023-07-20T02:27:50;9.73;;;3.85;;
27489;SDS011;14925;51.026;13.752;2023-07-20T02:30:15;9.45;;;7.22;;
27489;SDS011;14925;51.026;13.752;2023-07-20T02:32:41;10.80;;;5.78;;
27489;SDS011;14925;51.026;13.752;2023-07-20T02:35:10;11.43;;;6.68;;
27489;SDS011;14925;51.026;13.752;2023-07-20T02:37:36;11.88;;;6.70;;
27489;SDS011;14925;51.026;13.752;2023-07-20T02:40:02;11.57;;;6.72;;
27489;SDS011;14925;51.026;13.752;2023-07-20T02:42:29;12.52;;;7.35;;
27489;SDS011;14925;51.026;13.752;2023-07-20T02:44:54;10.20;;;7.28;;
27489;SDS011;14925;51.026;13.752;2023-07-20T02:47:19;9.93;;;6.25;;
27489;SDS011;14925;51.026;13.752;2023-07-20T02:49:45;13.80;;;7.07;;
27489;SDS011;14925;51.026;13.752;2023-07-20T02:52:11;15.05;;;7.10;;
27489;SDS011;14925;51.026;13.752;2023-07-20T02:54:36;11.43;;;6.75;;
27489;SDS011;14925;51.026;13.752;2023-07-20T02:57:04;11.30;;;7.35;;
27489;SDS011;14925;51.026;13.752;2023-07-20T02:59:30;13.25;;;7.93;;
27489;SDS011;14925;51.026;13.752;2023-07-20T03:01:55;11.82;;;8.82;;
27489;SDS011;14925;51.026;13.752;2023-07-20T03:04:22;13.02;;;8.40;;
27489;SDS011;14925;51.026;13.752;2023-07-20T03:06:48;14.52;;;9.00;;
27489;SDS011;14925;51.026;13.752;2023-07-20T03:09:13;9.90;;;7.47;;
27489;SDS011;14925;51.026;13.752;2023-07-20T03:11:40;13.82;;;6.95;;
27489;SDS011;14925;51.026;13.752;2023-07-20T03:14:06;14.98;;;7.30;;
27489;SDS011;14925;51.026;13.752;2023-07-20T03:16:31;12.50;;;7.53;;
27489;SDS011;14925;51.026;13.752;2023-07-20T03:18:58;12.32;;;7.53;;
27489;SDS011;14925;51.026;13.752;2023-07-20T03:21:25;15.23;;;9.00;;
27489;SDS011;14925;51.026;13.752;2023-07-20T03:23:50;13.93;;;6.97;;
27489;SDS011;14925;51.026;13.752;2023-07-20T03:26:15;13.25;;;6.95;;
27489;SDS011;14925;51.026;13.752;2023-07-20T03:28:43;14.25;;;8.57;;
27489;SDS011;14925;51.026;13.752;2023-07-20T03:31:09;13.07;;;7.18;;
27489;SDS011;14925;51.026;13.752;2023-07-20T03:33:34;16.58;;;7.20;;
27489;SDS011;14925;51.026;13.752;2023-07-20T03:36:00;20.75;;;9.10;;
27489;SDS011;14925;51.026;13.752;2023-07-20T03:38:26;14.10;;;8.05;;
27489;SDS011;14925;51.026;13.752;2023-07-20T03:40:53;13.70;;;8.35;;
27489;SDS011;14925;51.026;13.752;2023-07-20T03:43:23;14.18;;;7.40;;
27489;SDS011;14925;51.026;13.752;2023-07-20T03:45:49;15.88;;;9.05;;
27489;SDS011;14925;51.026;13.752;2023-07-20T03:48:15;15.10;;;7.70;;
27489;SDS011;14925;51.026;13.752;2023-07-20T03:50:41;14.30;;;7.75;;
27489;SDS011;14925;51.026;13.752;2023-07-20T03:53:09;14.48;;;7.55;;
27489;SDS011;14925;51.026;13.752;2023-07-20T03:55:34;17.02;;;7.80;;
27489;SDS011;14925;51.026;13.752;2023-07-20T03:58:00;10.45;;;7.05;;
27489;SDS011;14925;51.026;13.752;2023-07-20T04:00:26;9.50;;;6.80;;
27489;SDS011;14925;51.026;13.752;2023-07-20T04:02:52;12.40;;;7.55;;
27489;SDS011;14925;51.026;13.752;2023-07-20T04:05:17;12.60;;;7.65;;
27489;SDS011;14925;51.026;13.752;2023-07-20T04:07:42;14.07;;;7.60;;
27489;SDS011;14925;51.026;13.752;2023-07-20T04:10:09;18.00;;;8.48;;
27489;SDS011;14925;51.026;13.752;2023-07-20T04:12:35;9.95;;;6.00;;
27489;SDS011;14925;51.026;13.752;2023-07-20T04:15:01;13.27;;;7.32;;
27489;SDS011;14925;51.026;13.752;2023-07-20T04:17:26;13.98;;;6.47;;
27489;SDS011;14925;51.026;13.752;2023-07-20T04:19:51;12.73;;;6.20;;
27489;SDS011;14925;51.026;13.752;2023-07-20T04:22:17;11.63;;;7.25;;
27489;SDS011;14925;51.026;13.752;2023-07-20T04:24:42;12.63;;;6.35;;
27489;SDS011;14925;51.026;13.752;2023-07-20T04:27:08;11.18;;;6.32;;
27489;SDS011;14925;51.026;13.752;2023-07-20T04:29:33;10.63;;;6.63;;
27489;SDS011;14925;51.026;13.752;2023-07-20T04:31:58;11.23;;;7.32;;
27489;SDS011;14925;51.026;13.752;2023-07-20T04:34:24;13.73;;;6.22;;
27489;SDS011;14925;51.026;13.752;2023-07-20T04:36:49;15.07;;;6.80;;
27489;SDS011;14925;51.026;13.752;2023-07-20T04:39:15;12.45;;;7.82;;
27489;SDS011;14925;51.026;13.752;2023-07-20T04:41:40;13.98;;;6.90;;
27489;SDS011;14925;51.026;13.752;2023-07-20T04:44:05;13.55;;;8.70;;
27489;SDS011;14925;51.026;13.752;2023-07-20T04:46:31;13.63;;;8.30;;
27489;SDS011;14925;51.026;13.752;2023-07-20T04:48:56;14.75;;;9.10;;
27489;SDS011;14925;51.026;13.752;2023-07-20T04:51:21;17.35;;;10.45;;
27489;SDS011;14925;51.026;13.752;2023-07-20T04:53:47;19.60;;;9.45;;
27489;SDS011;14925;51.026;13.752;2023-07-20T04:56:12;13.40;;;8.45;;
27489;SDS011;14925;51.026;13.752;2023-07-20T04:58:38;16.95;;;9.90;;
27489;SDS011;14925;51.026;13.752;2023-07-20T05:01:03;15.30;;;9.13;;
27489;SDS011;14925;51.026;13.752;2023-07-20T05:03:29;13.30;;;8.80;;
27489;SDS011;14925;51.026;13.752;2023-07-20T05:05:54;16.50;;;9.25;;
27489;SDS011;14925;51.026;13.752;2023-07-20T05:08:20;15.10;;;8.27;;
27489;SDS011;14925;51.026;13.752;2023-07-20T05:10:47;11.38;;;8.30;;
27489;SDS011;14925;51.026;13.752;2023-07-20T05:13:13;11.43;;;7.68;;
27489;SDS011;14925;51.026;13.752;2023-07-20T05:15:38;15.57;;;7.13;;
27489;SDS011;14925;51.026;13.752;2023-07-20T05:18:03;13.10;;;7.00;;
27489;SDS011;14925;51.026;13.752;2023-07-20T05:20:29;13.77;;;6.97;;
27489;SDS011;14925;51.026;13.752;2023-07-20T05:22:56;12.00;;;7.45;;
27489;SDS011;14925;51.026;13.752;2023-07-20T05:25:22;13.05;;;5.93;;
27489;SDS011;14925;51.026;13.752;2023-07-20T05:27:47;12.48;;;6.00;;
27489;SDS011;14925;51.026;13.752;2023-07-20T05:30:13;8.75;;;5.50;;
27489;SDS011;14925;51.026;13.752;2023-07-20T05:32:38;11.90;;;6.50;;
27489;SDS011;14925;51.026;13.752;2023-07-20T05:35:04;10.63;;;5.57;;
27489;SDS011;14925;51.026;13.752;2023-07-20T05:37:29;11.23;;;5.65;;
27489;SDS011;14925;51.026;13.752;2023-07-20T05:39:55;13.52;;;5.32;;
27489;SDS011;14925;51.026;13.752;2023-07-20T05:42:20;13.40;;;5.60;;
27489;SDS011;14925;51.026;13.752;2023-07-20T05:44:46;10.55;;;5.70;;
27489;SDS011;14925;51.026;13.752;2023-07-20T05:47:13;12.88;;;5.78;;
27489;SDS011;14925;51.026;13.752;2023-07-20T05:49:38;10.88;;;5.47;;
27489;SDS011;14925;51.026;13.752;2023-07-20T05:52:03;9.77;;;5.38;;
27489;SDS011;14925;51.026;13.752;2023-07-20T05:54:29;11.98;;;5.25;;
27489;SDS011;14925;51.026;13.752;2023-07-20T05:56:54;11.73;;;5.15;;
27489;SDS011;14925;51.026;13.752;2023-07-20T05:59:20;9.80;;;4.85;;
27489;SDS011;14925;51.026;13.752;2023-07-20T06:01:45;9.27;;;4.80;;
27489;SDS011;14925;51.026;13.752;2023-07-20T06:04:13;8.82;;;4.97;;
27489;SDS011;14925;51.026;13.752;2023-07-20T06:06:39;14.35;;;5.35;;
27489;SDS011;14925;51.026;13.752;2023-07-20T06:09:04;8.48;;;5.20;;
27489;SDS011;14925;51.026;13.752;2023-07-20T06:11:32;15.52;;;6.72;;
27489;SDS011;14925;51.026;13.752;2023-07-20T06:13:58;13.95;;;5.70;;
27489;SDS011;14925;51.026;13.752;2023-07-20T06:16:23;12.63;;;6.10;;
27489;SDS011;14925;51.026;13.752;2023-07-20T06:18:48;11.98;;;7.30;;
27489;SDS011;14925;51.026;13.752;2023-07-20T06:21:14;12.02;;;6.32;;
27489;SDS011;14925;51.026;13.752;2023-07-20T06:23:39;17.27;;;7.10;;
27489;SDS011;14925;51.026;13.752;2023-07-20T06:26:06;15.60;;;9.05;;
27489;SDS011;14925;51.026;13.752;2023-07-20T06:28:32;16.58;;;9.65;;
27489;SDS011;14925;51.026;13.752;2023-07-20T06:31:01;17.90;;;9.85;;
27489;SDS011;14925;51.026;13.752;2023-07-20T06:33:27;22.25;;;11.75;;
27489;SDS011;14925;51.026;13.752;2023-07-20T06:35:52;15.35;;;9.02;;
27489;SDS011;14925;51.026;13.752;2023-07-20T06:38:18;19.20;;;12.15;;
27489;SDS011;14925;51.026;13.752;2023-07-20T06:40:45;19.90;;;16.40;;
27489;SDS011;14925;51.026;13.752;2023-07-20T06:43:11;33.53;;;23.60;;
27489;SDS011;14925;51.026;13.752;2023-07-20T06:45:36;21.45;;;16.02;;
27489;SDS011;14925;51.026;13.752;2023-07-20T06:48:02;20.15;;;13.98;;
27489;SDS011;14925;51.026;13.752;2023-07-20T06:50:28;20.73;;;15.95;;
27489;SDS011;14925;51.026;13.752;2023-07-20T06:52:53;21.50;;;15.55;;
27489;SDS011;14925;51.026;13.752;2023-07-20T06:55:19;16.95;;;12.20;;
27489;SDS011;14925;51.026;13.752;2023-07-20T06:57:44;26.88;;;15.93;;
27489;SDS011;14925;51.026;13.752;2023-07-20T07:00:10;33.47;;;21.17;;
27489;SDS011;14925;51.026;13.752;2023-07-20T07:02:36;16.45;;;14.68;;
27489;SDS011;14925;51.026;13.752;2023-07-20T07:05:01;16.33;;;11.05;;
27489;SDS011;14925;51.026;13.752;2023-07-20T07:07:27;15.18;;;10.98;;
27489;SDS011;14925;51.026;13.752;2023-07-20T07:09:52;17.00;;;12.88;;
27489;SDS011;14925;51.026;13.752;2023-07-20T07:12:17;21.48;;;14.82;;
27489;SDS011;14925;51.026;13.752;2023-07-20T07:14:43;25.77;;;14.95;;
27489;SDS011;14925;51.026;13.752;2023-07-20T07:17:08;17.48;;;12.80;;
27489;SDS011;14925;51.026;13.752;2023-07-20T07:19:33;20.80;;;13.13;;
27489;SDS011;14925;51.026;13.752;2023-07-20T07:21:59;13.80;;;11.13;;
27489;SDS011;14925;51.026;13.752;2023-07-20T07:24:24;18.63;;;9.48;;
27489;SDS011;14925;51.026;13.752;2023-07-20T07:26:50;21.50;;;13.43;;
27489;SDS011;14925;51.026;13.752;2023-07-20T07:29:15;17.58;;;10.15;;
27489;SDS011;14925;51.026;13.752;2023-07-20T07:31:40;14.13;;;10.50;;
27489;SDS011;14925;51.026;13.752;2023-07-20T07:34:06;10.85;;;7.97;;
27489;SDS011;14925;51.026;13.752;2023-07-20T07:36:32;17.08;;;10.60;;
27489;SDS011;14925;51.026;13.752;2023-07-20T07:38:57;14.63;;;10.85;;
27489;SDS011;14925;51.026;13.752;2023-07-20T07:41:23;15.23;;;9.70;;
27489;SDS011;14925;51.026;13.752;2023-07-20T07:43:48;16.95;;;14.05;;
27489;SDS011;14925;51.026;13.752;2023-07-20T07:46:14;10.07;;;7.97;;
27489;SDS011;14925;51.026;13.752;2023-07-20T07:48:39;11.52;;;7.97;;
27489;SDS011;14925;51.026;13.752;2023-07-20T07:51:05;12.35;;;7.65;;
27489;SDS011;14925;51.026;13.752;2023-07-20T07:53:30;11.55;;;8.35;;
27489;SDS011;14925;51.026;13.752;2023-07-20T07:55:57;10.40;;;6.32;;
27489;SDS011;14925;51.026;13.752;2023-07-20T07:58:22;8.18;;;7.38;;
27489;SDS011;14925;51.026;13.752;2023-07-20T08:00:48;9.80;;;6.50;;
27489;SDS011;14925;51.026;13.752;2023-07-20T08:03:13;11.15;;;8.05;;
27489;SDS011;14925;51.026;13.752;2023-07-20T08:05:39;12.75;;;11.48;;
27489;SDS011;14925;51.026;13.752;2023-07-20T08:08:04;9.32;;;5.63;;
27489;SDS011;14925;51.026;13.752;2023-07-20T08:10:30;9.80;;;5.70;;
27489;SDS011;14925;51.026;13.752;2023-07-20T08:12:55;8.45;;;5.57;;
27489;SDS011;14925;51.026;13.752;2023-07-20T08:15:21;13.13;;;6.75;;
27489;SDS011;14925;51.026;13.752;2023-07-20T08:17:46;12.93;;;8.55;;
27489;SDS011;14925;51.026;13.752;2023-07-20T08:20:13;7.53;;;6.03;;
27489;SDS011;14925;51.026;13.752;2023-07-20T08:22:41;12.80;;;10.15;;
27489;SDS011;14925;51.026;13.752;2023-07-20T08:25:07;7.78;;;6.70;;
27489;SDS011;14925;51.026;13.752;2023-07-20T08:27:33;7.10;;;5.95;;
27489;SDS011;14925;51.026;13.752;2023-07-20T08:29:58;7.32;;;5.75;;
27489;SDS011;14925;51.026;13.752;2023-07-20T08:32:24;6.38;;;5.60;;
27489;SDS011;14925;51.026;13.752;2023-07-20T08:34:50;7.35;;;6.43;;
27489;SDS011;14925;51.026;13.752;2023-07-20T08:37:15;10.88;;;6.45;;
27489;SDS011;14925;51.026;13.752;2023-07-20T08:39:41;9.63;;;6.68;;
27489;SDS011;14925;51.026;13.752;2023-07-20T08:42:06;10.40;;;6.80;;
27489;SDS011;14925;51.026;13.752;2023-07-20T08:44:35;6.70;;;6.00;;
27489;SDS011;14925;51.026;13.752;2023-07-20T08:47:02;9.82;;;5.90;;
27489;SDS011;14925;51.026;13.752;2023-07-20T08:49:29;8.63;;;4.88;;
27489;SDS011;14925;51.026;13.752;2023-07-20T08:51:56;5.55;;;4.78;;
27489;SDS011;14925;51.026;13.752;2023-07-20T08:54:21;6.93;;;5.97;;
27489;SDS011;14925;51.026;13.752;2023-07-20T08:56:47;5.72;;;4.25;;
27489;SDS011;14925;51.026;13.752;2023-07-20T08:59:16;7.60;;;4.30;;
27489;SDS011;14925;51.026;13.752;2023-07-20T09:01:42;6.95;;;4.60;;
27489;SDS011;14925;51.026;13.752;2023-07-20T09:04:08;5.60;;;4.88;;
27489;SDS011;14925;51.026;13.752;2023-07-20T09:06:34;5.32;;;4.78;;
27489;SDS011;14925;51.026;13.752;2023-07-20T09:09:00;5.75;;;4.53;;
27489;SDS011;14925;51.026;13.752;2023-07-20T09:11:25;7.50;;;5.38;;
27489;SDS011;14925;51.026;13.752;2023-07-20T09:14:07;8.27;;;5.28;;
27489;SDS011;14925;51.026;13.752;2023-07-20T09:16:46;5.88;;;4.60;;
27489;SDS011;14925;51.026;13.752;2023-07-20T09:19:16;6.13;;;5.50;;
27489;SDS011;14925;51.026;13.752;2023-07-20T09:21:44;8.95;;;4.68;;
27489;SDS011;14925;51.026;13.752;2023-07-20T09:24:12;6.35;;;4.32;;
27489;SDS011;14925;51.026;13.752;2023-07-20T09:26:41;5.75;;;4.20;;
27489;SDS011;14925;51.026;13.752;2023-07-20T09:29:08;6.78;;;3.85;;
27489;SDS011;14925;51.026;13.752;2023-07-20T09:31:36;4.78;;;3.67;;
27489;SDS011;14925;51.026;13.752;2023-07-20T09:34:02;4.65;;;3.20;;
27489;SDS011;14925;51.026;13.752;2023-07-20T09:36:28;5.53;;;3.30;;
27489;SDS011;14925;51.026;13.752;2023-07-20T09:38:54;5.47;;;4.43;;
27489;SDS011;14925;51.026;13.752;2023-07-20T09:41:20;7.13;;;3.60;;
27489;SDS011;14925;51.026;13.752;2023-07-20T09:43:46;4.90;;;3.50;;
27489;SDS011;14925;51.026;13.752;2023-07-20T09:46:11;5.07;;;3.30;;
27489;SDS011;14925;51.026;13.752;2023-07-20T09:48:42;5.55;;;3.28;;
27489;SDS011;14925;51.026;13.752;2023-07-20T09:51:17;4.82;;;3.10;;
27489;SDS011;14925;51.026;13.752;2023-07-20T09:53:43;4.70;;;3.80;;
27489;SDS011;14925;51.026;13.752;2023-07-20T09:56:09;6.50;;;4.40;;
27489;SDS011;14925;51.026;13.752;2023-07-20T09:58:36;5.40;;;4.88;;
27489;SDS011;14925;51.026;13.752;2023-07-20T10:01:01;4.90;;;4.30;;
27489;SDS011;14925;51.026;13.752;2023-07-20T10:03:28;8.65;;;4.63;;
27489;SDS011;14925;51.026;13.752;2023-07-20T10:05:56;6.03;;;5.47;;
27489;SDS011;14925;51.026;13.752;2023-07-20T10:08:24;6.93;;;6.22;;
27489;SDS011;14925;51.026;13.752;2023-07-20T10:10:50;9.55;;;7.65;;
27489;SDS011;14925;51.026;13.752;2023-07-20T10:13:21;7.55;;;5.97;;
27489;SDS011;14925;51.026;13.752;2023-07-20T10:15:53;6.63;;;5.00;;
27489;SDS011;14925;51.026;13.752;2023-07-20T10:21:16;10.98;;;8.88;;
27489;SDS011;14925;51.026;13.752;2023-07-20T10:23:42;12.88;;;9.23;;
27489;SDS011;14925;51.026;13.752;2023-07-20T10:26:08;13.48;;;9.38;;
27489;SDS011;14925;51.026;13.752;2023-07-20T10:28:34;17.35;;;9.55;;
27489;SDS011;14925;51.026;13.752;2023-07-20T10:30:59;12.10;;;7.72;;
27489;SDS011;14925;51.026;13.752;2023-07-20T10:33:25;11.25;;;8.45;;
27489;SDS011;14925;51.026;13.752;2023-07-20T10:35:54;10.65;;;8.05;;
27489;SDS011;14925;51.026;13.752;2023-07-20T10:38:42;10.65;;;7.32;;
27489;SDS011;14925;51.026;13.752;2023-07-20T10:43:44;8.57;;;7.00;;
27489;SDS011;14925;51.026;13.752;2023-07-20T10:46:13;12.80;;;8.70;;
27489;SDS011;14925;51.026;13.752;2023-07-20T10:51:27;10.75;;;8.05;;
27489;SDS011;14925;51.026;13.752;2023-07-20T10:53:54;7.05;;;6.35;;
27489;SDS011;14925;51.026;13.752;2023-07-20T10:56:22;6.25;;;4.68;;
27489;SDS011;14925;51.026;13.752;2023-07-20T10:58:55;6.53;;;4.80;;
27489;SDS011;14925;51.026;13.752;2023-07-20T11:01:27;4.95;;;4.10;;
27489;SDS011;14925;51.026;13.752;2023-07-20T11:03:59;5.55;;;3.70;;
27489;SDS011;14925;51.026;13.752;2023-07-20T11:09:09;4.38;;;3.80;;
27489;SDS011;14925;51.026;13.752;2023-07-20T11:11:44;5.85;;;4.30;;
27489;SDS011;14925;51.026;13.752;2023-07-20T11:14:24;6.53;;;5.47;;
27489;SDS011;14925;51.026;13.752;2023-07-20T11:16:50;7.50;;;6.80;;
27489;SDS011;14925;51.026;13.752;2023-07-20T11:19:23;11.43;;;8.65;;
27489;SDS011;14925;51.026;13.752;2023-07-20T11:21:53;9.63;;;8.73;;
27489;SDS011;14925;51.026;13.752;2023-07-20T11:24:20;9.13;;;8.18;;
27489;SDS011;14925;51.026;13.752;2023-07-20T11:29:12;9.27;;;8.23;;
27489;SDS011;14925;51.026;13.752;2023-07-20T11:31:38;10.32;;;8.57;;
27489;SDS011;14925;51.026;13.752;2023-07-20T11:34:04;11.48;;;10.32;;
27489;SDS011;14925;51.026;13.752;2023-07-20T11:36:30;10.90;;;8.88;;
27489;SDS011;14925;51.026;13.752;2023-07-20T11:38:55;10.27;;;9.25;;
27489;SDS011;14925;51.026;13.752;2023-07-20T11:41:24;8.98;;;8.18;;
27489;SDS011;14925;51.026;13.752;2023-07-20T11:43:55;11.30;;;10.23;;
27489;SDS011;14925;51.026;13.752;2023-07-20T11:46:20;10.40;;;9.00;;
27489;SDS011;14925;51.026;13.752;2023-07-20T11:48:46;8.32;;;7.47;;
27489;SDS011;14925;51.026;13.752;2023-07-20T11:51:15;9.35;;;8.45;;
27489;SDS011;14925;51.026;13.752;2023-07-20T11:53:44;8.55;;;7.78;;
27489;SDS011;14925;51.026;13.752;2023-07-20T11:56:11;9.52;;;7.28;;
27489;SDS011;14925;51.026;13.752;2023-07-20T11:58:41;9.35;;;8.38;;
27489;SDS011;14925;51.026;13.752;2023-07-20T12:01:08;9.48;;;8.52;;
27489;SDS011;14925;51.026;13.752;2023-07-20T12:03:33;8.32;;;7.15;;
27489;SDS011;14925;51.026;13.752;2023-07-20T12:06:06;7.90;;;6.78;;
27489;SDS011;14925;51.026;13.752;2023-07-20T12:08:32;8.40;;;6.45;;
27489;SDS011;14925;51.026;13.752;2023-07-20T12:10:58;7.55;;;6.75;;
27489;SDS011;14925;51.026;13.752;2023-07-20T12:13:23;8.40;;;7.60;;
27489;SDS011;14925;51.026;13.752;2023-07-20T12:15:52;9.07;;;7.20;;
27489;SDS011;14925;51.026;13.752;2023-07-20T12:18:22;8.90;;;5.93;;
27489;SDS011;14925;51.026;13.752;2023-07-20T12:20:59;6.70;;;5.88;;
27489;SDS011;14925;51.026;13.752;2023-07-20T12:23:25;7.45;;;6.75;;
27489;SDS011;14925;51.026;13.752;2023-07-20T12:25:53;7.63;;;6.82;;
27489;SDS011;14925;51.026;13.752;2023-07-20T12:28:21;10.07;;;6.93;;
27489;SDS011;14925;51.026;13.752;2023-07-20T12:30:47;8.98;;;8.00;;
27489;SDS011;14925;51.026;13.752;2023-07-20T12:35:46;7.20;;;6.13;;
27489;SDS011;14925;51.026;13.752;2023-07-20T12:38:11;10.57;;;9.27;;
27489;SDS011;14925;51.026;13.752;2023-07-20T12:40:37;11.52;;;8.65;;
27489;SDS011;14925;51.026;13.752;2023-07-20T12:43:02;9.88;;;7.97;;
27489;SDS011;14925;51.026;13.752;2023-07-20T12:45:28;11.68;;;10.57;;
27489;SDS011;14925;51.026;13.752;2023-07-20T12:47:54;16.75;;;14.57;;
27489;SDS011;14925;51.026;13.752;2023-07-20T12:50:19;10.82;;;9.48;;
27489;SDS011;14925;51.026;13.752;2023-07-20T12:52:45;7.95;;;7.13;;
27489;SDS011;14925;51.026;13.752;2023-07-20T12:55:10;8.00;;;7.20;;
27489;SDS011;14925;51.026;13.752;2023-07-20T12:57:36;7.82;;;6.88;;
27489;SDS011;14925;51.026;13.752;2023-07-20T13:00:02;7.97;;;6.43;;
27489;SDS011;14925;51.026;13.752;2023-07-20T13:02:33;5.45;;;4.95;;
27489;SDS011;14925;51.026;13.752;2023-07-20T13:04:58;5.68;;;5.07;;
27489;SDS011;14925;51.026;13.752;2023-07-20T13:07:30;5.88;;;5.30;;
27489;SDS011;14925;51.026;13.752;2023-07-20T13:09:57;6.03;;;4.95;;
27489;SDS011;14925;51.026;13.752;2023-07-20T13:12:25;8.93;;;4.88;;
27489;SDS011;14925;51.026;13.752;2023-07-20T13:14:54;5.47;;;4.53;;
27489;SDS011;14925;51.026;13.752;2023-07-20T13:17:20;5.13;;;4.47;;
27489;SDS011;14925;51.026;13.752;2023-07-20T13:19:45;4.95;;;4.18;;
27489;SDS011;14925;51.026;13.752;2023-07-20T13:22:11;4.35;;;3.95;;
27489;SDS011;14925;51.026;13.752;2023-07-20T13:24:36;4.38;;;3.97;;
27489;SDS011;14925;51.026;13.752;2023-07-20T13:27:02;5.47;;;3.60;;
27489;SDS011;14925;51.026;13.752;2023-07-20T13:29:28;4.50;;;3.90;;
27489;SDS011;14925;51.026;13.752;2023-07-20T13:31:53;3.30;;;3.00;;
27489;SDS011;14925;51.026;13.752;2023-07-20T13:34:19;6.18;;;3.20;;
27489;SDS011;14925;51.026;13.752;2023-07-20T13:36:44;3.90;;;3.40;;
27489;SDS011;14925;51.026;13.752;2023-07-20T13:39:09;4.25;;;3.38;;
27489;SDS011;14925;51.026;13.752;2023-07-20T13:41:37;3.92;;;3.10;;
27489;SDS011;14925;51.026;13.752;2023-07-20T13:44:07;3.83;;;2.83;;
27489;SDS011;14925;51.026;13.752;2023-07-20T13:46:32;4.43;;;3.10;;
27489;SDS011;14925;51.026;13.752;2023-07-20T13:48:57;5.18;;;3.40;;
27489;SDS011;14925;51.026;13.752;2023-07-20T13:51:23;4.28;;;3.60;;
27489;SDS011;14925;51.026;13.752;2023-07-20T13:53:48;4.57;;;3.65;;
27489;SDS011;14925;51.026;13.752;2023-07-20T13:56:13;3.90;;;3.50;;
27489;SDS011;14925;51.026;13.752;2023-07-20T13:58:39;5.80;;;2.75;;
27489;SDS011;14925;51.026;13.752;2023-07-20T14:01:07;3.83;;;3.03;;
27489;SDS011;14925;51.026;13.752;2023-07-20T14:03:32;2.63;;;2.42;;
27489;SDS011;14925;51.026;13.752;2023-07-20T14:05:58;2.50;;;2.30;;
27489;SDS011;14925;51.026;13.752;2023-07-20T14:08:23;2.55;;;2.30;;
27489;SDS011;14925;51.026;13.752;2023-07-20T14:10:49;5.07;;;3.05;;
27489;SDS011;14925;51.026;13.752;2023-07-20T14:13:14;7.72;;;2.70;;
27489;SDS011;14925;51.026;13.752;2023-07-20T14:15:39;2.50;;;1.88;;
27489;SDS011;14925;51.026;13.752;2023-07-20T14:18:05;2.20;;;1.95;;
27489;SDS011;14925;51.026;13.752;2023-07-20T14:20:30;2.38;;;1.90;;
27489;SDS011;14925;51.026;13.752;2023-07-20T14:22:56;2.63;;;1.80;;
27489;SDS011;14925;51.026;13.752;2023-07-20T14:25:21;2.60;;;1.95;;
27489;SDS011;14925;51.026;13.752;2023-07-20T14:27:47;2.30;;;1.67;;
27489;SDS011;14925;51.026;13.752;2023-07-20T14:30:12;3.28;;;1.83;;
27489;SDS011;14925;51.026;13.752;2023-07-20T14:32:38;1.88;;;1.60;;
27489;SDS011;14925;51.026;13.752;2023-07-20T14:35:07;2.67;;;1.83;;
27489;SDS011;14925;51.026;13.752;2023-07-20T14:37:33;2.28;;;1.90;;
27489;SDS011;14925;51.026;13.752;2023-07-20T14:39:59;2.92;;;2.05;;
27489;SDS011;14925;51.026;13.752;2023-07-20T14:42:24;2.92;;;1.52;;
27489;SDS011;14925;51.026;13.752;2023-07-20T14:44:50;4.75;;;1.83;;
27489;SDS011;14925;51.026;13.752;2023-07-20T14:47:15;2.75;;;1.70;;